Hyundai No.107 — A8CT4 — position and weather

sailwx.info

Track history (hours):
 
Tides and Currents Weather Stations Pressure Air Temp Water Temp Dewpoint Dewpoint Depression Visibility Wind Speed Wind Dir Waves Ship Positions

Hyundai No.107

Last reported at 2015-Jul-23 18:30 UTC. Time now 2015-Jul-28 21:48 UTC.
Position N 48°37' W 126°26'.

Length 184 m; draft 7.2 m.

Type: Cargo ship. MMSI: 636011980.

Date/timePositionNaut miles runAvg speedWind from/ knotsBaromVisibWave heightAir tempDewpointWater temp
2015-Jul-23 18:30N 48°37' W 126°26'1515.5
2015-Jul-23 17:33N 48°36' W 126°04'1615.9
2015-Jul-23 16:33N 48°33' W 125°41'1615.7
2015-Jul-23 15:33N 48°32' W 125°17'1615.7
2015-Jul-23 14:33N 48°30' W 124°53'1616.1
2015-Jul-23 13:33N 48°26' W 124°30'1616.3
2015-Jul-23 12:33N 48°20' W 124°07'1716.5
2015-Jul-23 11:31N 48°16' W 123°42'1313.4
2015-Jul-23 10:33N 48°22' W 123°25'10 9.8
2015-Jul-23 09:33N 48°27' W 123°12'1616.3
2015-Jul-23 08:33N 48°43' W 123°12'1111.0
2015-Jul-23 07:33N 48°54' W 123°09'1413.7
2015-Jul-23 06:34N 49°05' W 123°21'9 8.7
2015-Jul-23 05:34N 49°06' W 123°08'3 2.5
2015-Jul-23 04:32N 49°08' W 123°04'0 0.0
2015-Jul-23 03:32N 49°08' W 123°04'0 0.0
2015-Jul-23 02:32N 49°08' W 123°04'0 0.0
2015-Jul-23 01:32N 49°08' W 123°04'0 0.0
2015-Jul-23 00:32N 49°08' W 123°04'0 0.0
2015-Jul-22 23:33N 49°08' W 123°04'0 0.1
2015-Jul-22 22:33N 49°08' W 123°04'7 6.8
2015-Jul-22 21:33N 49°11' W 122°55'0 0.0
2015-Jul-22 20:33N 49°11' W 122°55'0 0.0
2015-Jul-22 19:33N 49°11' W 122°55'0 0.0
2015-Jul-22 18:33N 49°11' W 122°55'0 0.0
2015-Jul-22 17:30N 49°11' W 122°55'0 0.0
2015-Jul-22 16:33N 49°11' W 122°55'0 0.0
2015-Jul-22 15:33N 49°11' W 122°55'0 0.0
2015-Jul-22 14:33N 49°11' W 122°55'0 0.0
2015-Jul-22 13:33N 49°11' W 122°55'0 0.0
2015-Jul-22 12:33N 49°11' W 122°55'0 0.0
2015-Jul-22 11:33N 49°11' W 122°55'0 0.0
2015-Jul-22 10:33N 49°11' W 122°55'0 0.0
2015-Jul-22 09:33N 49°11' W 122°55'0 0.0
2015-Jul-22 08:33N 49°11' W 122°55'0 0.0
2015-Jul-22 07:30N 49°11' W 122°55'0 0.0
2015-Jul-22 06:33N 49°11' W 122°55'0 0.0
2015-Jul-22 05:33N 49°11' W 122°55'0 0.1
2015-Jul-22 04:33N 49°11' W 122°55'8 7.8
2015-Jul-22 03:33N 49°07' W 123°05'10 9.8
2015-Jul-22 02:33N 49°05' W 123°20'1313.2
2015-Jul-22 01:33N 48°55' W 123°07'1212.2
2015-Jul-22 00:33N 48°43' W 123°10'1413.7
2015-Jul-21 23:33N 48°29' W 123°10'1111.3
2015-Jul-21 22:33N 48°22' W 123°23'9 9.4
2015-Jul-21 21:33N 48°14' W 123°30'1313.1
2015-Jul-21 20:33N 48°14' W 123°50'1513.8
2015-Jul-21 19:27N 48°19' W 124°11'3711.7
2015-Jul-21 16:16N 48°19' W 125°07'9 9.7
2015-Jul-21 15:19N 48°12' W 125°15'4615.3
2015-Jul-21 12:18N 47°51' W 126°18'  
Track history (hours):
 
Tides and Currents Weather Stations Pressure Air Temp Water Temp Dewpoint Dewpoint Depression Visibility Wind Speed Wind Dir Waves Ship Positions

Hyundai No.107

Last reported at 2015-Jul-23 18:30 UTC. Time now 2015-Jul-28 21:48 UTC.
Position N 48°37' W 126°26'.

Length 184 m; draft 7.2 m.

Type: Cargo ship. MMSI: 636011980.

Date/timePositionNaut miles runAvg speedWind from/ knotsBaromVisibWave heightAir tempDewpointWater temp
2015-Jul-23 18:30N 48°37' W 126°26'1515.5
2015-Jul-23 17:33N 48°36' W 126°04'1615.9
2015-Jul-23 16:33N 48°33' W 125°41'1615.7
2015-Jul-23 15:33N 48°32' W 125°17'1615.7
2015-Jul-23 14:33N 48°30' W 124°53'1616.1
2015-Jul-23 13:33N 48°26' W 124°30'1616.3
2015-Jul-23 12:33N 48°20' W 124°07'1716.5
2015-Jul-23 11:31N 48°16' W 123°42'1313.4
2015-Jul-23 10:33N 48°22' W 123°25'10 9.8
2015-Jul-23 09:33N 48°27' W 123°12'1616.3
2015-Jul-23 08:33N 48°43' W 123°12'1111.0
2015-Jul-23 07:33N 48°54' W 123°09'1413.7
2015-Jul-23 06:34N 49°05' W 123°21'9 8.7
2015-Jul-23 05:34N 49°06' W 123°08'3 2.5
2015-Jul-23 04:32N 49°08' W 123°04'0 0.0
2015-Jul-23 03:32N 49°08' W 123°04'0 0.0
2015-Jul-23 02:32N 49°08' W 123°04'0 0.0
2015-Jul-23 01:32N 49°08' W 123°04'0 0.0
2015-Jul-23 00:32N 49°08' W 123°04'0 0.0
2015-Jul-22 23:33N 49°08' W 123°04'0 0.1
2015-Jul-22 22:33N 49°08' W 123°04'7 6.8
2015-Jul-22 21:33N 49°11' W 122°55'0 0.0
2015-Jul-22 20:33N 49°11' W 122°55'0 0.0
2015-Jul-22 19:33N 49°11' W 122°55'0 0.0
2015-Jul-22 18:33N 49°11' W 122°55'0 0.0
2015-Jul-22 17:30N 49°11' W 122°55'0 0.0
2015-Jul-22 16:33N 49°11' W 122°55'0 0.0
2015-Jul-22 15:33N 49°11' W 122°55'0 0.0
2015-Jul-22 14:33N 49°11' W 122°55'0 0.0
2015-Jul-22 13:33N 49°11' W 122°55'0 0.0
2015-Jul-22 12:33N 49°11' W 122°55'0 0.0
2015-Jul-22 11:33N 49°11' W 122°55'0 0.0
2015-Jul-22 10:33N 49°11' W 122°55'0 0.0
2015-Jul-22 09:33N 49°11' W 122°55'0 0.0
2015-Jul-22 08:33N 49°11' W 122°55'0 0.0
2015-Jul-22 07:30N 49°11' W 122°55'0 0.0
2015-Jul-22 06:33N 49°11' W 122°55'0 0.0
2015-Jul-22 05:33N 49°11' W 122°55'0 0.1
2015-Jul-22 04:33N 49°11' W 122°55'8 7.8
2015-Jul-22 03:33N 49°07' W 123°05'10 9.8
2015-Jul-22 02:33N 49°05' W 123°20'1313.2
2015-Jul-22 01:33N 48°55' W 123°07'1212.2
2015-Jul-22 00:33N 48°43' W 123°10'1413.7
2015-Jul-21 23:33N 48°29' W 123°10'1111.3
2015-Jul-21 22:33N 48°22' W 123°23'9 9.4
2015-Jul-21 21:33N 48°14' W 123°30'1313.1
2015-Jul-21 20:33N 48°14' W 123°50'1513.8
2015-Jul-21 19:27N 48°19' W 124°11'3711.7
2015-Jul-21 16:16N 48°19' W 125°07'9 9.7
2015-Jul-21 15:19N 48°12' W 125°15'4615.3
2015-Jul-21 12:18N 47°51' W 126°18'  

Dump ship's entire track history